Time;durP1;ratioP1;P1;durP2;ratioP2;P2;SDS_P1;SDS_P2;PMS_P1;PMS_P2;Temp;Humidity;BMP_temperature;BMP_pressure;BME280_temperature;BME280_humidity;BME280_pressure;Samples;Min_cycle;Max_cycle;Signal;HPM_P1;HPM_P2
2021/01/22 00:00:12;;;;;;;4.57;4.18;;;;;;;;;;5045257;28;20224;-68
2021/01/22 00:02:37;;;;;;;5.37;4.87;;;;;;;;;;5040693;28;20185;-69
2021/01/22 00:05:02;;;;;;;5.53;4.80;;;;;;;;;;5042207;28;20331;-69
2021/01/22 00:07:28;;;;;;;5.73;5.13;;;;;;;;;;5049747;28;20174;-69
2021/01/22 00:09:53;;;;;;;5.83;4.47;;;;;;;;;;5046753;28;20220;-68
2021/01/22 00:12:19;;;;;;;5.63;5.13;;;;;;;;;;5048029;28;20209;-69
2021/01/22 00:14:46;;;;;;;8.47;5.27;;;;;;;;;;5047685;28;20212;-69
2021/01/22 00:17:11;;;;;;;6.40;5.00;;;;;;;;;;5049474;28;20269;-69
2021/01/22 00:19:37;;;;;;;6.17;4.63;;;;;;;;;;5046440;28;20296;-69
2021/01/22 00:22:02;;;;;;;6.88;5.28;;;;;;;;;;5046714;28;20174;-69
2021/01/22 00:24:27;;;;;;;5.30;4.50;;;;;;;;;;5029388;28;20328;-70
2021/01/22 00:26:52;;;;;;;5.87;4.70;;;;;;;;;;5042428;28;20185;-69
2021/01/22 00:29:17;;;;;;;5.30;4.17;;;;;;;;;;5041360;28;20204;-69
2021/01/22 00:31:43;;;;;;;4.53;3.77;;;;;;;;;;5041619;28;20189;-69
2021/01/22 00:34:08;;;;;;;5.50;3.43;;;;;;;;;;5025402;28;20206;-69
2021/01/22 00:36:33;;;;;;;3.83;3.17;;;;;;;;;;5042978;28;20213;-69
2021/01/22 00:38:58;;;;;;;3.83;2.70;;;;;;;;;;5040530;28;20554;-69
2021/01/22 00:41:23;;;;;;;4.10;2.90;;;;;;;;;;5039679;28;20218;-69
2021/01/22 00:43:48;;;;;;;3.53;2.20;;;;;;;;;;5038260;28;20197;-68
2021/01/22 00:46:14;;;;;;;3.37;2.03;;;;;;;;;;5041684;28;20189;-69
2021/01/22 00:48:39;;;;;;;4.90;1.73;;;;;;;;;;5041411;28;20178;-69
2021/01/22 00:51:04;;;;;;;3.33;2.60;;;;;;;;;;5041115;28;20187;-68
2021/01/22 00:53:29;;;;;;;3.47;2.60;;;;;;;;;;5037145;28;20205;-69
2021/01/22 00:55:54;;;;;;;5.57;3.28;;;;;;;;;;5042334;28;20181;-68
2021/01/22 00:58:20;;;;;;;6.35;3.65;;;;;;;;;;5037609;28;20577;-68
2021/01/22 01:00:45;;;;;;;7.53;3.63;;;;;;;;;;5042328;28;20257;-68
2021/01/22 01:03:10;;;;;;;6.00;3.00;;;;;;;;;;5044051;28;20300;-68
2021/01/22 01:05:35;;;;;;;4.70;3.40;;;;;;;;;;5038977;28;20260;-69
2021/01/22 01:08:00;;;;;;;8.40;3.47;;;;;;;;;;5043768;28;20719;-69
2021/01/22 01:10:26;;;;;;;5.07;3.13;;;;;;;;;;5023908;28;20264;-68
2021/01/22 01:12:51;;;;;;;5.53;3.30;;;;;;;;;;5040156;28;20585;-69
2021/01/22 01:15:16;;;;;;;4.80;2.90;;;;;;;;;;5042650;28;20177;-68
2021/01/22 01:17:41;;;;;;;4.73;3.23;;;;;;;;;;5042960;28;20873;-68
2021/01/22 01:20:07;;;;;;;3.60;2.57;;;;;;;;;;5042689;28;20208;-68
2021/01/22 01:22:33;;;;;;;4.33;2.97;;;;;;;;;;5044291;28;20177;-68
2021/01/22 01:24:58;;;;;;;5.53;3.27;;;;;;;;;;5040959;28;20277;-69
2021/01/22 01:27:23;;;;;;;5.33;3.30;;;;;;;;;;5040394;28;20667;-68
2021/01/22 01:29:48;;;;;;;6.22;3.72;;;;;;;;;;5041088;28;20703;-68
2021/01/22 01:32:13;;;;;;;5.18;3.97;;;;;;;;;;5039718;28;20188;-69
2021/01/22 01:34:39;;;;;;;4.53;3.27;;;;;;;;;;5038608;28;20207;-69
2021/01/22 01:37:04;;;;;;;6.57;3.93;;;;;;;;;;5037431;28;20192;-68
2021/01/22 01:39:29;;;;;;;5.03;3.50;;;;;;;;;;5039713;28;20688;-69
2021/01/22 01:41:54;;;;;;;4.80;3.47;;;;;;;;;;5039869;28;20174;-68
2021/01/22 01:44:19;;;;;;;6.63;4.13;;;;;;;;;;5036967;28;20197;-68
2021/01/22 01:46:44;;;;;;;5.90;3.80;;;;;;;;;;5045651;28;20201;-69
2021/01/22 01:49:10;;;;;;;6.87;4.50;;;;;;;;;;5038440;28;20190;-68
2021/01/22 01:51:35;;;;;;;4.80;3.87;;;;;;;;;;5036532;28;20180;-69
2021/01/22 01:54:00;;;;;;;8.27;4.13;;;;;;;;;;5038042;28;20200;-69
2021/01/22 01:56:26;;;;;;;4.17;3.30;;;;;;;;;;5023542;28;20673;-68
2021/01/22 01:58:51;;;;;;;5.03;3.70;;;;;;;;;;5045855;28;20291;-68
2021/01/22 02:01:17;;;;;;;4.67;3.50;;;;;;;;;;5040252;28;20179;-68
2021/01/22 02:03:42;;;;;;;5.53;4.10;;;;;;;;;;5036922;28;20227;-69
2021/01/22 02:06:07;;;;;;;8.40;4.77;;;;;;;;;;5037447;28;20297;-68
2021/01/22 02:08:33;;;;;;;5.47;4.97;;;;;;;;;;5042605;28;20182;-69
2021/01/22 02:11:00;;;;;;;5.73;4.30;;;;;;;;;;5037947;28;20182;-68
2021/01/22 02:13:26;;;;;;;4.40;4.00;;;;;;;;;;5040214;28;20835;-69
2021/01/22 02:15:52;;;;;;;3.93;3.63;;;;;;;;;;5042411;28;20260;-69
2021/01/22 02:18:17;;;;;;;2.80;2.50;;;;;;;;;;5038039;28;20226;-69
2021/01/22 02:20:52;;;;;;;3.23;1.87;;;;;;;;;;5022276;28;20628;-69
2021/01/22 02:23:19;;;;;;;4.70;1.50;;;;;;;;;;5040262;28;20213;-68
2021/01/22 02:25:44;;;;;;;1.43;1.10;;;;;;;;;;5040017;28;20177;-68
2021/01/22 02:28:12;;;;;;;2.20;1.27;;;;;;;;;;5048996;28;20182;-69
2021/01/22 02:30:39;;;;;;;3.07;1.10;;;;;;;;;;5028926;28;20256;-69
2021/01/22 02:33:05;;;;;;;0.80;0.80;;;;;;;;;;5040281;28;20695;-69
2021/01/22 02:35:31;;;;;;;2.67;0.90;;;;;;;;;;5038169;28;20212;-68
2021/01/22 02:37:57;;;;;;;1.80;1.00;;;;;;;;;;5044310;28;20709;-67
2021/01/22 02:40:22;;;;;;;1.30;0.90;;;;;;;;;;5046949;28;20217;-67
2021/01/22 02:42:49;;;;;;;2.03;0.70;;;;;;;;;;5046329;28;20206;-68
2021/01/22 02:45:15;;;;;;;2.70;0.90;;;;;;;;;;5045893;28;20174;-68
2021/01/22 02:47:44;;;;;;;2.00;0.90;;;;;;;;;;5044911;28;20513;-68
2021/01/22 02:50:10;;;;;;;2.07;0.70;;;;;;;;;;5044754;28;20569;-68
2021/01/22 02:52:35;;;;;;;1.10;0.80;;;;;;;;;;5044765;28;20186;-67
2021/01/22 02:55:01;;;;;;;1.60;0.70;;;;;;;;;;5041746;28;20186;-67
2021/01/22 02:57:46;;;;;;;1.17;0.70;;;;;;;;;;5040939;28;20595;-67
2021/01/22 03:00:18;;;;;;;0.57;0.50;;;;;;;;;;5041050;28;20292;-68
2021/01/22 03:03:04;;;;;;;0.83;0.50;;;;;;;;;;5043039;28;20204;-68
2021/01/22 03:05:30;;;;;;;1.23;0.60;;;;;;;;;;5041448;28;20193;-67
2021/01/22 03:08:02;;;;;;;1.20;0.80;;;;;;;;;;5044550;28;20186;-67
2021/01/22 03:10:28;;;;;;;2.40;0.80;;;;;;;;;;5042275;28;20178;-67
2021/01/22 03:12:55;;;;;;;1.17;0.70;;;;;;;;;;5041266;28;20277;-67
2021/01/22 03:15:21;;;;;;;1.53;0.70;;;;;;;;;;5044299;28;20583;-68
2021/01/22 03:17:46;;;;;;;2.30;1.00;;;;;;;;;;5043182;28;20236;-68
2021/01/22 03:20:16;;;;;;;1.43;0.70;;;;;;;;;;5044201;28;20683;-68
2021/01/22 03:22:41;;;;;;;4.73;0.97;;;;;;;;;;5045073;28;20600;-68
2021/01/22 03:25:12;;;;;;;1.63;0.80;;;;;;;;;;5046682;28;20177;-68
2021/01/22 03:27:38;;;;;;;1.43;0.60;;;;;;;;;;5046265;28;20249;-67
2021/01/22 03:30:04;;;;;;;3.33;0.70;;;;;;;;;;5042022;28;20367;-67
2021/01/22 03:32:29;;;;;;;2.63;0.77;;;;;;;;;;5053086;28;20177;-68
2021/01/22 03:34:54;;;;;;;4.57;0.77;;;;;;;;;;5042589;28;20186;-68
2021/01/22 03:37:19;;;;;;;1.10;0.70;;;;;;;;;;5043732;28;20190;-68
2021/01/22 03:39:45;;;;;;;3.00;0.70;;;;;;;;;;5039691;28;20577;-68
2021/01/22 03:42:10;;;;;;;2.93;0.70;;;;;;;;;;5045169;28;20173;-68
2021/01/22 03:44:36;;;;;;;1.80;0.90;;;;;;;;;;5041290;28;20200;-67
2021/01/22 03:47:01;;;;;;;0.80;0.80;;;;;;;;;;5028423;28;20251;-68
2021/01/22 03:49:27;;;;;;;3.93;1.30;;;;;;;;;;5045887;28;22167;-67
2021/01/22 03:51:52;;;;;;;1.83;1.20;;;;;;;;;;5042018;28;20193;-68
2021/01/22 03:54:17;;;;;;;2.37;1.60;;;;;;;;;;5042575;28;20231;-68
2021/01/22 03:56:42;;;;;;;4.30;2.10;;;;;;;;;;5045779;28;20181;-67
2021/01/22 03:59:07;;;;;;;5.30;2.50;;;;;;;;;;5041495;28;20741;-67
2021/01/22 04:01:33;;;;;;;4.47;2.80;;;;;;;;;;5044246;28;20181;-68
2021/01/22 04:03:58;;;;;;;6.07;2.70;;;;;;;;;;5041510;28;20343;-67
2021/01/22 04:06:23;;;;;;;5.00;3.17;;;;;;;;;;5039744;28;20186;-67
2021/01/22 04:08:49;;;;;;;5.33;3.30;;;;;;;;;;5040756;28;20188;-68
2021/01/22 04:11:14;;;;;;;6.00;3.80;;;;;;;;;;5048186;28;20308;-68
2021/01/22 04:13:40;;;;;;;7.37;4.53;;;;;;;;;;5046749;28;20197;-67
2021/01/22 04:16:05;;;;;;;14.20;6.07;;;;;;;;;;5052339;28;20183;-67
2021/01/22 04:18:30;;;;;;;10.13;4.87;;;;;;;;;;5044635;28;20271;-67
2021/01/22 04:20:55;;;;;;;9.37;5.30;;;;;;;;;;5039905;28;20558;-67
2021/01/22 04:23:20;;;;;;;6.97;4.30;;;;;;;;;;5042219;28;20217;-68
2021/01/22 04:25:46;;;;;;;5.67;4.23;;;;;;;;;;5041469;28;20174;-68
2021/01/22 04:28:11;;;;;;;8.93;4.40;;;;;;;;;;5023820;28;20324;-67
2021/01/22 04:30:36;;;;;;;5.63;4.33;;;;;;;;;;5041852;28;20184;-67
2021/01/22 04:33:02;;;;;;;6.07;5.03;;;;;;;;;;5038990;28;20205;-67
2021/01/22 04:35:27;;;;;;;8.23;4.00;;;;;;;;;;5041867;28;20193;-68
2021/01/22 04:37:52;;;;;;;7.60;3.97;;;;;;;;;;5043094;28;20269;-67
2021/01/22 04:40:17;;;;;;;5.17;3.93;;;;;;;;;;5039828;28;20271;-67
2021/01/22 04:42:43;;;;;;;7.50;4.30;;;;;;;;;;5036019;28;20682;-66
2021/01/22 04:45:09;;;;;;;6.37;3.90;;;;;;;;;;5040667;28;20304;-68
2021/01/22 04:47:34;;;;;;;5.93;3.60;;;;;;;;;;5041437;28;20170;-68
2021/01/22 04:50:00;;;;;;;5.50;4.07;;;;;;;;;;5050221;28;20184;-67
2021/01/22 04:52:26;;;;;;;11.93;5.23;;;;;;;;;;5049125;28;20189;-69
2021/01/22 04:54:52;;;;;;;10.30;5.30;;;;;;;;;;5045019;28;20178;-67
2021/01/22 04:57:17;;;;;;;6.97;4.23;;;;;;;;;;5042317;28;20184;-67
2021/01/22 04:59:49;;;;;;;14.53;6.77;;;;;;;;;;5042610;28;20202;-67
2021/01/22 05:02:15;;;;;;;10.93;6.33;;;;;;;;;;5042597;28;20206;-69
2021/01/22 05:04:40;;;;;;;9.67;6.10;;;;;;;;;;5039845;28;20232;-69
2021/01/22 05:07:09;;;;;;;12.20;6.10;;;;;;;;;;5036705;28;20181;-69
2021/01/22 05:09:35;;;;;;;20.23;8.13;;;;;;;;;;5040133;28;20459;-69
2021/01/22 05:12:01;;;;;;;12.50;8.47;;;;;;;;;;5041648;28;21647;-67
2021/01/22 05:14:26;;;;;;;14.20;10.00;;;;;;;;;;5029754;28;20770;-69
2021/01/22 05:17:01;;;;;;;15.90;9.40;;;;;;;;;;5049233;28;20733;-68
2021/01/22 05:19:26;;;;;;;19.03;10.77;;;;;;;;;;5021772;28;20650;-66
2021/01/22 05:21:51;;;;;;;15.10;10.77;;;;;;;;;;5037979;28;20257;-69
2021/01/22 05:24:20;;;;;;;16.03;11.27;;;;;;;;;;5039462;28;20213;-69
2021/01/22 05:26:46;;;;;;;16.93;10.83;;;;;;;;;;5025500;28;20174;-67
2021/01/22 05:29:15;;;;;;;22.03;12.17;;;;;;;;;;5038902;28;20184;-69
2021/01/22 05:31:40;;;;;;;18.77;11.87;;;;;;;;;;5038049;28;20176;-66
2021/01/22 05:34:06;;;;;;;18.23;11.63;;;;;;;;;;5037271;28;20229;-67
2021/01/22 05:36:32;;;;;;;27.83;12.37;;;;;;;;;;5041994;28;20681;-67
2021/01/22 05:38:59;;;;;;;23.10;12.60;;;;;;;;;;5039810;28;20732;-67
2021/01/22 05:41:24;;;;;;;21.87;13.63;;;;;;;;;;5038632;28;20192;-66
2021/01/22 05:43:50;;;;;;;19.60;12.83;;;;;;;;;;5038141;28;20193;-67
2021/01/22 05:46:27;;;;;;;20.63;12.97;;;;;;;;;;5039553;28;20177;-67
2021/01/22 05:49:08;;;;;;;25.47;12.67;;;;;;;;;;5021932;28;20176;-67
2021/01/22 05:51:33;;;;;;;19.60;12.00;;;;;;;;;;5037777;28;20185;-67
2021/01/22 05:53:58;;;;;;;22.77;12.47;;;;;;;;;;5044523;28;20231;-67
2021/01/22 05:56:24;;;;;;;19.07;11.87;;;;;;;;;;5042973;28;20270;-67
2021/01/22 05:58:49;;;;;;;17.67;11.63;;;;;;;;;;5037551;28;20228;-67
2021/01/22 06:01:15;;;;;;;21.23;12.47;;;;;;;;;;5041318;28;20234;-67
2021/01/22 06:03:42;;;;;;;21.27;12.20;;;;;;;;;;5039438;28;20668;-66
2021/01/22 06:06:08;;;;;;;24.40;12.17;;;;;;;;;;5040492;28;20228;-66
2021/01/22 06:08:34;;;;;;;16.47;12.47;;;;;;;;;;5022233;28;20174;-69
2021/01/22 06:10:59;;;;;;;23.57;13.07;;;;;;;;;;5043184;28;20174;-67
2021/01/22 06:13:26;;;;;;;19.43;11.43;;;;;;;;;;5042800;28;20276;-67
2021/01/22 06:15:53;;;;;;;27.47;13.37;;;;;;;;;;5055006;28;20178;-66
2021/01/22 06:18:21;;;;;;;27.50;12.73;;;;;;;;;;5041088;28;20205;-67
2021/01/22 06:20:47;;;;;;;28.33;13.17;;;;;;;;;;5041196;28;20228;-67
2021/01/22 06:23:13;;;;;;;21.63;13.57;;;;;;;;;;5045133;28;20698;-67
2021/01/22 06:25:39;;;;;;;19.80;13.23;;;;;;;;;;5041240;28;20174;-67
2021/01/22 06:28:05;;;;;;;24.17;13.87;;;;;;;;;;5039828;28;20214;-67
2021/01/22 06:30:34;;;;;;;20.87;13.37;;;;;;;;;;5044412;28;20186;-69
2021/01/22 06:32:59;;;;;;;25.83;13.57;;;;;;;;;;5043600;28;20204;-67
2021/01/22 06:35:28;;;;;;;23.47;13.07;;;;;;;;;;5044254;28;20182;-67
2021/01/22 06:37:54;;;;;;;20.23;12.77;;;;;;;;;;5045602;28;20265;-67
2021/01/22 06:40:20;;;;;;;21.83;13.07;;;;;;;;;;5041574;28;20220;-67
2021/01/22 06:42:45;;;;;;;20.27;12.23;;;;;;;;;;5047834;28;20194;-67
2021/01/22 06:45:11;;;;;;;19.10;13.63;;;;;;;;;;5043411;28;20620;-66
2021/01/22 06:47:36;;;;;;;25.47;14.67;;;;;;;;;;5044022;28;20169;-67
2021/01/22 06:50:01;;;;;;;19.80;13.50;;;;;;;;;;5045697;28;20200;-68
2021/01/22 06:52:26;;;;;;;17.73;12.60;;;;;;;;;;5044608;28;20190;-67
2021/01/22 06:54:57;;;;;;;22.07;12.80;;;;;;;;;;5025906;28;20204;-67
2021/01/22 06:57:25;;;;;;;26.03;13.10;;;;;;;;;;5040556;28;20210;-67
2021/01/22 06:59:51;;;;;;;20.07;13.63;;;;;;;;;;5040366;28;20217;-67
2021/01/22 07:02:31;;;;;;;24.10;12.90;;;;;;;;;;5048749;28;20178;-67
2021/01/22 07:04:56;;;;;;;20.00;12.30;;;;;;;;;;5043431;28;21032;-67
2021/01/22 07:07:40;;;;;;;21.10;13.27;;;;;;;;;;5040337;28;20193;-67
2021/01/22 07:10:06;;;;;;;23.90;12.90;;;;;;;;;;5040683;28;20316;-67
2021/01/22 07:12:37;;;;;;;20.27;13.13;;;;;;;;;;5042410;28;20273;-67
2021/01/22 07:15:20;;;;;;;19.17;12.27;;;;;;;;;;5045848;28;20773;-68
2021/01/22 07:17:48;;;;;;;20.83;11.97;;;;;;;;;;5042916;28;20173;-68
2021/01/22 07:20:14;;;;;;;20.83;12.07;;;;;;;;;;5045511;28;20581;-68
2021/01/22 07:22:49;;;;;;;20.73;13.27;;;;;;;;;;5040963;28;20296;-68
2021/01/22 07:25:27;;;;;;;22.23;11.87;;;;;;;;;;5040154;28;20205;-68
2021/01/22 07:27:53;;;;;;;18.93;11.97;;;;;;;;;;5043252;28;20255;-68
2021/01/22 07:30:18;;;;;;;24.70;12.07;;;;;;;;;;5044416;28;20275;-67
2021/01/22 07:32:44;;;;;;;19.57;11.00;;;;;;;;;;5041519;28;20206;-69
2021/01/22 07:35:18;;;;;;;16.83;10.47;;;;;;;;;;5044610;28;20647;-68
2021/01/22 07:37:46;;;;;;;14.70;10.40;;;;;;;;;;5043424;28;20188;-68
2021/01/22 07:40:12;;;;;;;17.33;10.27;;;;;;;;;;5039808;28;20228;-68
2021/01/22 07:42:38;;;;;;;16.63;10.97;;;;;;;;;;5041478;28;20178;-68
2021/01/22 07:45:05;;;;;;;16.83;10.37;;;;;;;;;;5044102;28;20624;-69
2021/01/22 07:47:31;;;;;;;15.47;10.70;;;;;;;;;;5044808;28;20200;-68
2021/01/22 07:49:57;;;;;;;16.30;11.00;;;;;;;;;;5042150;28;20186;-68
2021/01/22 07:52:23;;;;;;;22.90;12.10;;;;;;;;;;5042751;28;21070;-68
2021/01/22 07:54:49;;;;;;;18.73;10.43;;;;;;;;;;5039147;28;20204;-68
2021/01/22 07:57:15;;;;;;;19.23;11.00;;;;;;;;;;5025228;28;20189;-69
2021/01/22 07:59:40;;;;;;;18.50;10.90;;;;;;;;;;5021149;28;20216;-68
2021/01/22 08:02:15;;;;;;;20.80;11.00;;;;;;;;;;5041299;28;20189;-70
2021/01/22 08:04:40;;;;;;;20.03;11.20;;;;;;;;;;5029754;28;20203;-67
2021/01/22 08:07:05;;;;;;;16.80;10.43;;;;;;;;;;5041893;28;20174;-67
2021/01/22 08:09:30;;;;;;;20.70;11.23;;;;;;;;;;5043524;28;20186;-67
2021/01/22 08:12:06;;;;;;;21.07;11.60;;;;;;;;;;5022057;28;20193;-69
2021/01/22 08:14:31;;;;;;;17.93;10.30;;;;;;;;;;5046446;28;20203;-67
2021/01/22 08:16:56;;;;;;;22.27;11.33;;;;;;;;;;5041927;28;20747;-69
2021/01/22 08:19:25;;;;;;;19.03;11.67;;;;;;;;;;5040011;28;20232;-70
2021/01/22 08:21:51;;;;;;;18.10;11.30;;;;;;;;;;5039474;28;20191;-68
2021/01/22 08:24:17;;;;;;;22.67;11.33;;;;;;;;;;5038991;28;20217;-67
2021/01/22 08:26:42;;;;;;;17.17;11.37;;;;;;;;;;5038166;28;20183;-69
2021/01/22 08:29:09;;;;;;;24.07;13.03;;;;;;;;;;5038638;28;20193;-68
2021/01/22 08:31:37;;;;;;;16.00;12.07;;;;;;;;;;5044546;28;20655;-67
2021/01/22 08:34:02;;;;;;;27.93;12.80;;;;;;;;;;5038460;28;20234;-67
2021/01/22 08:36:28;;;;;;;16.73;11.37;;;;;;;;;;5040240;28;20255;-68
2021/01/22 08:38:56;;;;;;;27.93;12.13;;;;;;;;;;5023872;28;20208;-68
2021/01/22 08:41:22;;;;;;;17.20;11.77;;;;;;;;;;5044154;28;20193;-68
2021/01/22 08:43:48;;;;;;;19.23;11.50;;;;;;;;;;5040646;28;20682;-67
2021/01/22 08:46:14;;;;;;;14.00;11.27;;;;;;;;;;5042567;28;20178;-67
2021/01/22 08:48:39;;;;;;;15.80;11.63;;;;;;;;;;5040709;28;20564;-66
2021/01/22 08:51:04;;;;;;;20.50;13.83;;;;;;;;;;5043089;28;20666;-68
2021/01/22 08:53:30;;;;;;;22.47;11.17;;;;;;;;;;5041144;28;20630;-67
2021/01/22 08:56:15;;;;;;;16.47;12.10;;;;;;;;;;5038363;28;20647;-68
2021/01/22 08:58:58;;;;;;;18.77;11.83;;;;;;;;;;5040714;28;20186;-67
2021/01/22 09:01:42;;;;;;;21.33;12.30;;;;;;;;;;5040779;28;20170;-67
2021/01/22 09:04:27;;;;;;;17.03;10.67;;;;;;;;;;5042651;28;20220;-68
2021/01/22 09:06:54;;;;;;;25.87;13.10;;;;;;;;;;5040915;28;20180;-67
2021/01/22 09:09:37;;;;;;;19.07;12.57;;;;;;;;;;5030643;28;20250;-67
2021/01/22 09:12:12;;;;;;;23.67;12.97;;;;;;;;;;5044167;28;20189;-68
2021/01/22 09:15:04;;;;;;;21.47;11.43;;;;;;;;;;5044037;28;20224;-67
2021/01/22 09:17:36;;;;;;;17.53;11.87;;;;;;;;;;5033452;28;20774;-67
2021/01/22 09:20:04;;;;;;;16.13;11.17;;;;;;;;;;5025682;28;20205;-66
2021/01/22 09:22:33;;;;;;;15.93;11.47;;;;;;;;;;5038407;28;20641;-68
2021/01/22 09:24:59;;;;;;;21.10;11.70;;;;;;;;;;5043349;28;20174;-67
2021/01/22 09:27:24;;;;;;;19.13;10.73;;;;;;;;;;5038114;28;20663;-68
2021/01/22 09:29:50;;;;;;;18.30;10.33;;;;;;;;;;5037532;28;20250;-68
2021/01/22 09:32:15;;;;;;;16.00;11.13;;;;;;;;;;5023673;28;20201;-68
2021/01/22 09:34:40;;;;;;;15.67;11.43;;;;;;;;;;5040490;28;20274;-68
2021/01/22 09:37:05;;;;;;;17.33;11.07;;;;;;;;;;5041801;28;20194;-67
2021/01/22 09:39:30;;;;;;;24.83;11.70;;;;;;;;;;5044367;28;20197;-68
2021/01/22 09:41:56;;;;;;;21.73;11.13;;;;;;;;;;5050540;28;20190;-68
2021/01/22 09:44:21;;;;;;;15.57;10.70;;;;;;;;;;5041043;28;20213;-67
2021/01/22 09:46:46;;;;;;;20.63;10.87;;;;;;;;;;5048913;28;20462;-67
2021/01/22 09:49:11;;;;;;;19.03;11.43;;;;;;;;;;5046469;28;20234;-68
2021/01/22 09:51:37;;;;;;;21.03;11.20;;;;;;;;;;5050092;28;20690;-67
2021/01/22 09:54:02;;;;;;;18.87;10.23;;;;;;;;;;5046100;28;20205;-67
2021/01/22 09:56:27;;;;;;;13.93;10.00;;;;;;;;;;5037682;28;20205;-67
2021/01/22 09:58:52;;;;;;;17.90;10.63;;;;;;;;;;5031757;28;20602;-67
2021/01/22 10:01:18;;;;;;;11.27;8.67;;;;;;;;;;5049675;28;20186;-67
2021/01/22 10:03:43;;;;;;;15.63;9.23;;;;;;;;;;5048885;28;20254;-67
2021/01/22 10:06:12;;;;;;;19.27;8.20;;;;;;;;;;5046191;28;20189;-68
2021/01/22 10:08:37;;;;;;;16.23;8.20;;;;;;;;;;5047494;28;20173;-67
2021/01/22 10:11:02;;;;;;;18.10;8.57;;;;;;;;;;5051014;28;20183;-67
2021/01/22 10:13:27;;;;;;;10.47;6.40;;;;;;;;;;5050989;28;20730;-67
2021/01/22 10:15:52;;;;;;;10.10;6.00;;;;;;;;;;5050377;28;20169;-68
2021/01/22 10:18:18;;;;;;;6.87;6.10;;;;;;;;;;5046972;28;21841;-67
2021/01/22 10:20:43;;;;;;;8.60;6.00;;;;;;;;;;5054574;28;20201;-67
2021/01/22 10:23:08;;;;;;;7.57;5.83;;;;;;;;;;5048374;28;20217;-68
2021/01/22 10:25:33;;;;;;;14.17;5.50;;;;;;;;;;5061789;28;20203;-68
2021/01/22 10:27:59;;;;;;;11.40;5.10;;;;;;;;;;5049613;28;20165;-67
2021/01/22 10:30:24;;;;;;;11.63;5.30;;;;;;;;;;5050797;28;20541;-67
2021/01/22 10:32:49;;;;;;;12.47;5.90;;;;;;;;;;5056606;28;20284;-68
2021/01/22 10:35:14;;;;;;;10.93;5.37;;;;;;;;;;5048068;28;20178;-68
2021/01/22 10:37:40;;;;;;;7.83;4.90;;;;;;;;;;5047454;28;20599;-68
2021/01/22 10:40:06;;;;;;;9.37;5.80;;;;;;;;;;5051251;28;20209;-68
2021/01/22 10:42:31;;;;;;;9.20;5.50;;;;;;;;;;5049741;28;20181;-68
2021/01/22 10:44:56;;;;;;;9.27;4.20;;;;;;;;;;5051343;28;20271;-68
2021/01/22 10:47:21;;;;;;;6.83;4.10;;;;;;;;;;5049601;28;20186;-68
2021/01/22 10:49:46;;;;;;;8.13;3.80;;;;;;;;;;5048008;28;20624;-67
2021/01/22 10:52:12;;;;;;;6.87;3.60;;;;;;;;;;5049335;28;20195;-67
2021/01/22 10:54:37;;;;;;;8.00;3.70;;;;;;;;;;5047209;28;20474;-67
2021/01/22 10:57:02;;;;;;;16.03;4.10;;;;;;;;;;5048631;28;20174;-67
2021/01/22 10:59:27;;;;;;;10.83;4.03;;;;;;;;;;5050160;28;20392;-68
2021/01/22 11:01:52;;;;;;;8.20;3.80;;;;;;;;;;5049190;28;20190;-68
2021/01/22 11:04:17;;;;;;;7.40;3.00;;;;;;;;;;5047385;28;20208;-67
2021/01/22 11:06:43;;;;;;;9.10;3.85;;;;;;;;;;5025514;28;20733;-68
2021/01/22 11:09:08;;;;;;;9.33;3.67;;;;;;;;;;5045764;28;20430;-68
2021/01/22 11:11:33;;;;;;;10.43;3.93;;;;;;;;;;5044690;28;20272;-67
2021/01/22 11:13:58;;;;;;;15.83;3.70;;;;;;;;;;5045774;28;20288;-67
2021/01/22 11:16:23;;;;;;;8.33;3.60;;;;;;;;;;5049360;28;20174;-68
2021/01/22 11:18:49;;;;;;;11.47;3.20;;;;;;;;;;5051030;28;20177;-68
2021/01/22 11:21:14;;;;;;;8.07;3.60;;;;;;;;;;5045483;28;20189;-67
2021/01/22 11:23:39;;;;;;;9.17;3.57;;;;;;;;;;5050641;28;20237;-68
2021/01/22 11:26:04;;;;;;;7.80;3.40;;;;;;;;;;5050319;28;20182;-67
2021/01/22 11:28:32;;;;;;;6.17;2.73;;;;;;;;;;5051369;28;20273;-68
2021/01/22 11:30:58;;;;;;;5.07;3.00;;;;;;;;;;5050833;28;20180;-67
2021/01/22 11:33:23;;;;;;;10.93;3.83;;;;;;;;;;5048566;28;20198;-67
2021/01/22 11:35:48;;;;;;;6.13;2.90;;;;;;;;;;5042833;28;20173;-67
2021/01/22 11:38:13;;;;;;;8.77;3.37;;;;;;;;;;5042605;28;20176;-67
2021/01/22 11:40:38;;;;;;;7.73;2.90;;;;;;;;;;5043395;28;20723;-67
2021/01/22 11:43:03;;;;;;;8.83;3.43;;;;;;;;;;5041685;28;20213;-69
2021/01/22 11:45:28;;;;;;;9.17;2.93;;;;;;;;;;5042033;28;20194;-68
2021/01/22 11:47:54;;;;;;;7.10;2.93;;;;;;;;;;5044238;28;20170;-67
2021/01/22 11:50:19;;;;;;;15.10;3.17;;;;;;;;;;5046420;28;20181;-68
2021/01/22 11:52:45;;;;;;;8.73;2.90;;;;;;;;;;5043644;28;20296;-67
2021/01/22 11:55:10;;;;;;;8.40;3.30;;;;;;;;;;5043662;28;20186;-69
2021/01/22 11:57:35;;;;;;;7.00;3.03;;;;;;;;;;5047159;28;20251;-69
2021/01/22 12:00:01;;;;;;;13.33;3.23;;;;;;;;;;5043307;28;20267;-67
2021/01/22 12:02:26;;;;;;;9.27;3.10;;;;;;;;;;5046907;28;20187;-67
2021/01/22 12:04:51;;;;;;;6.50;2.67;;;;;;;;;;5045241;28;20205;-68
2021/01/22 12:07:16;;;;;;;13.57;3.43;;;;;;;;;;5028935;28;20674;-68
2021/01/22 12:09:41;;;;;;;10.60;3.43;;;;;;;;;;5045550;28;20559;-68
2021/01/22 12:12:08;;;;;;;10.40;2.63;;;;;;;;;;5044850;28;20244;-68
2021/01/22 12:14:33;;;;;;;8.63;3.27;;;;;;;;;;5043677;28;20713;-67
2021/01/22 12:16:58;;;;;;;6.70;2.77;;;;;;;;;;5045646;28;20201;-67
2021/01/22 12:19:23;;;;;;;7.50;2.30;;;;;;;;;;5048200;28;20201;-68
2021/01/22 12:21:49;;;;;;;7.80;2.70;;;;;;;;;;5026298;28;20602;-67
2021/01/22 12:24:14;;;;;;;11.27;4.03;;;;;;;;;;5043371;28;20252;-68
2021/01/22 12:26:39;;;;;;;12.70;2.50;;;;;;;;;;5047793;28;20647;-68
2021/01/22 12:29:04;;;;;;;8.10;2.33;;;;;;;;;;5046039;28;20730;-67
2021/01/22 12:31:30;;;;;;;6.60;2.40;;;;;;;;;;5046981;28;20189;-67
2021/01/22 12:33:55;;;;;;;6.77;2.73;;;;;;;;;;5044440;28;20200;-67
2021/01/22 12:36:20;;;;;;;9.73;2.80;;;;;;;;;;5044694;28;20671;-67
2021/01/22 12:38:45;;;;;;;5.83;2.30;;;;;;;;;;5043800;28;20201;-67
2021/01/22 12:41:11;;;;;;;7.80;2.37;;;;;;;;;;5047554;28;20201;-67
2021/01/22 12:43:37;;;;;;;6.83;2.60;;;;;;;;;;5034637;28;20194;-67
2021/01/22 12:46:02;;;;;;;13.13;3.87;;;;;;;;;;5048974;28;20268;-67
2021/01/22 12:48:27;;;;;;;8.73;2.93;;;;;;;;;;5045337;28;20270;-67
2021/01/22 12:50:53;;;;;;;10.97;2.50;;;;;;;;;;5047150;28;20174;-66
2021/01/22 12:53:18;;;;;;;7.90;3.03;;;;;;;;;;5043662;28;20712;-67
2021/01/22 12:55:45;;;;;;;6.37;2.80;;;;;;;;;;5046359;28;20173;-70
2021/01/22 12:58:10;;;;;;;6.93;2.30;;;;;;;;;;5042792;28;21541;-67
2021/01/22 13:00:36;;;;;;;10.73;2.37;;;;;;;;;;5044084;28;20206;-67
2021/01/22 13:03:01;;;;;;;8.93;2.43;;;;;;;;;;5043650;28;20668;-66
2021/01/22 13:05:26;;;;;;;13.33;3.80;;;;;;;;;;5040997;28;20265;-67
2021/01/22 13:07:51;;;;;;;5.33;2.60;;;;;;;;;;5043544;28;20205;-67
2021/01/22 13:10:17;;;;;;;9.10;2.83;;;;;;;;;;5041268;28;20743;-66
2021/01/22 13:12:42;;;;;;;6.67;3.10;;;;;;;;;;5041425;28;20208;-67
2021/01/22 13:15:08;;;;;;;8.93;3.47;;;;;;;;;;5039832;28;20539;-66
2021/01/22 13:17:34;;;;;;;6.00;2.60;;;;;;;;;;5040643;28;20209;-67
2021/01/22 13:19:59;;;;;;;8.23;2.30;;;;;;;;;;5028922;28;20604;-68
2021/01/22 13:22:25;;;;;;;9.97;2.90;;;;;;;;;;5048842;28;20223;-70
2021/01/22 13:24:50;;;;;;;10.33;2.87;;;;;;;;;;5041686;28;20567;-69
2021/01/22 13:27:15;;;;;;;5.73;2.40;;;;;;;;;;5043648;28;20169;-69
2021/01/22 13:29:40;;;;;;;4.87;2.20;;;;;;;;;;5043742;28;20185;-67
2021/01/22 13:32:05;;;;;;;6.63;2.70;;;;;;;;;;5046851;28;20188;-67
2021/01/22 13:34:31;;;;;;;10.20;2.50;;;;;;;;;;5042577;28;20201;-67
2021/01/22 13:36:56;;;;;;;9.73;2.23;;;;;;;;;;5041388;28;20272;-67
2021/01/22 13:39:21;;;;;;;10.00;4.07;;;;;;;;;;5044702;28;20194;-67
2021/01/22 13:41:46;;;;;;;7.87;3.10;;;;;;;;;;5046181;28;20170;-67
2021/01/22 13:44:12;;;;;;;4.10;2.20;;;;;;;;;;5029699;28;20197;-69
2021/01/22 13:46:37;;;;;;;8.90;2.10;;;;;;;;;;5044861;28;20182;-67
2021/01/22 13:49:02;;;;;;;6.67;2.33;;;;;;;;;;5044482;28;20174;-67
2021/01/22 13:51:28;;;;;;;6.20;2.00;;;;;;;;;;5045149;28;20639;-69
2021/01/22 13:53:53;;;;;;;13.67;3.03;;;;;;;;;;5041326;28;20250;-66
2021/01/22 13:56:18;;;;;;;6.67;2.60;;;;;;;;;;5040256;28;20639;-69
2021/01/22 13:58:43;;;;;;;6.27;2.33;;;;;;;;;;5044589;28;20643;-68
2021/01/22 14:01:09;;;;;;;5.83;2.07;;;;;;;;;;5051080;28;20344;-69
2021/01/22 14:03:34;;;;;;;8.67;3.00;;;;;;;;;;5042265;28;20197;-67
2021/01/22 14:05:59;;;;;;;6.33;2.03;;;;;;;;;;5039454;28;20190;-67
2021/01/22 14:08:24;;;;;;;7.73;2.77;;;;;;;;;;5040214;28;20182;-69
2021/01/22 14:10:49;;;;;;;7.47;3.10;;;;;;;;;;5037881;28;20189;-66
2021/01/22 14:13:14;;;;;;;10.43;2.37;;;;;;;;;;5042891;28;20204;-66
2021/01/22 14:15:40;;;;;;;7.33;2.37;;;;;;;;;;5040493;28;20189;-66
2021/01/22 14:18:05;;;;;;;7.63;2.20;;;;;;;;;;5029137;28;20197;-67
2021/01/22 14:20:30;;;;;;;5.33;1.70;;;;;;;;;;5043453;28;20588;-69
2021/01/22 14:22:55;;;;;;;9.83;2.83;;;;;;;;;;5044556;28;20205;-67
2021/01/22 14:25:22;;;;;;;13.13;2.10;;;;;;;;;;5045953;28;20182;-66
2021/01/22 14:27:47;;;;;;;6.57;2.60;;;;;;;;;;5040062;28;20179;-66